Bowen, IL (62316)

5:13 PM CST on February 09, 2016 (GMT -0600)
Chem Gro Inc. | | Change Station
CLOSE
Current Station
Personal Weather Station
Location: Bowen, IL
Elevation: 679 ft
Nearby Weather Stations

Elev 679 ft 40.24 °N, 91.06 °W | Updated 13 seconds ago

Clear
Clear
18.0 °F
Feels Like 18 °F
N
0.2
Wind Variable Wind from North
Gusts 0.2 mph

Today
High -- | Low -- °F
--% Chance of Precip.
Yesterday
High -- | Low -- °F
Precip. -- in
Pressure 30.10 in
Visibility 10.0 miles
Clouds Clear
Windchill 18 °F
Dew Point 11 °F
Humidity 75%
Rainfall 0.03 in
Snow Depth Not available.
7:05 AM 5:32 PM
New Moon, 2% visible
METAR KUIN 092254Z AUTO 31014KT 10SM CLR M07/M14 A3006 RMK AO2 SLP193 T10721144
Pressure 30.10 in
Visibility 10.0 miles
Clouds Clear
Windchill 18 °F
Dew Point 11 °F
Humidity 75%
Rainfall 0.03 in
Snow Depth Not available.
7:05 AM 5:32 PM
New Moon, 2% visible
METAR KUIN 092254Z AUTO 31014KT 10SM CLR M07/M14 A3006 RMK AO2 SLP193 T10721144

10-Day Weather Forecast

Almanac

Astronomy

Feb. 09, 2016 Rise Set
Actual Time
Civil Twilight
Nautical Twilight
Astronomical Twilight
Moon
Length of Visible Light
Length of Day
Tomorrow will be .
, % of the Moon is Illuminated

Today's Extremes

State Highs State Lows

Community

WunderPhotos

Upload Photos

1,891,728 photos uploaded!

WunderBlog® & News

Nearby

Air Quality

  Air Quality AQ Index Pollutant
Not available.

Snow Depth

Station Depth Elevation

Earthquake Activity

City Distance Mag. Time & Date
Minimum magnitude displayed is 2.5.

Coastal Water Temperatures

Place Temperature

Stations

Nearby Weather Stations

Station Location Temp. Windchill Dew Point Humidity Wind Precip. Elev Updated Type
                   

Watches & Warnings

There are currently no watches in effect.